Terminal Aerodrome Forecast
Issued by NWS

Home | Current Version | Previous Version | Text Only | Print | Product List | Glossary On
Versions: 1 2 3 4 5 6 7 8 9 10 11 12 13 14 15
000
FTUS43 KLSX 121121
TAFCPS
TAF
KCPS 121121Z 1212/1312 32014G21KT P6SM BKN035
     FM121400 33013G21KT P6SM FEW250
     FM122300 30008KT P6SM FEW150
     FM130400 25004KT P6SM FEW090=

USA.gov is the U.S. government's official web portal to all federal, state and local government web resources and services.